Details From SBGR - Sao Paulo - Guarulhos
To SBJV - LAURO CARNEIRO DE LOYOLA
Flight Number -
Tags decoded
Created
Modified
Stats Distance 244 nm / 452 km
Max Altitude 0 ft / 0 m
Waypoints 6
Social Downloads 4
Likes 0
Share VATSIM

Download

Looking for another format? Having issues loading an existing format? Contact us
Advertisement - Login to hide

Notes

Requested: SBGR NIBGA CLARO CTB ALVOX SBJV

Route

SBGR NIBGA CLARO CTB ALVOX SBJV

ID Type Via Altitude Latitude Longitude Leg Dist Tot Dist Heading (true) Name
O SBGR APT - 0 ft / 0 m -23.43233˚ -46.46968˚ - 0 nm - Sao Paulo - Guarulhos
NIBGA FIX - 0 ft / 0 m -24.07883˚ -47.23967˚ 57 nm 57 nm 227° / 228° -
CLARO FIX - 0 ft / 0 m -25.10833˚ -48.59967˚ 96 nm 154 nm 230° / 231° -
CTB VOR - 0 ft / 0 m -25.53200˚ -49.16767˚ 39 nm 194 nm 230° / 231° CURITIBA VOR-DME
ALVOX FIX - 0 ft / 0 m -26.17500˚ -48.97250˚ 40 nm 234 nm 165° / 165° -
O SBJV APT - 0 ft / 0 m -26.22445˚ -48.79736˚ 9 nm 243 nm 108° / 107° LAURO CARNEIRO DE LOYOLA

Altitude Profile

Advertisement - Login to hide

Weather


0- 5 10 15 20 25 30 35+ Temperature / ° C

Clouds and Precipitation
Forecast for 2018-05-20 18:00 UTC. Updated an hour ago

Ground ~20,000 ft ~40,000 ft Winds

SBGR

Details ICAO SBGR (GRU)
Name Sao Paulo - Guarulhos
Region Brazil
Timezone America/Sao_Paulo (UTC-3.0)
Stats Elevation 2,459 ft / 750 m (AMSL)
Location -23.432333° -46.469675°
Runways 2
Magnetic Variation 21.465° W

METAR

SBGR 201800Z 31011KT CAVOK 18/08 Q1015

Decode

TAF

TAF SBGR 201010Z 2012/2118 28012KT CAVOK TN07/2108Z TX20/2117Z BECMG 2020/2022 35005KT BECMG 2101/2103 00000KT BECMG 2109/2111 05005KT BECMG 2112/2114 30005KT BECMG 2115/2117 18005KT RMK PGN

Decode

Departure Runways

ID Width Length Bearing (true) Bearing (mag) Surface Threshold Offset Overrun Length
09L 148 ft / 45 m 12,676 ft / 3,864 m 73.61° 95.07° Asphalt 495 ft / 151 m 0 ft / 0 m
09R 148 ft / 45 m 9,950 ft / 3,033 m 73.60° 95.06° Asphalt 0 ft / 0 m 197 ft / 60 m
27L 148 ft / 45 m 9,950 ft / 3,033 m 253.59° 275.05° Asphalt 0 ft / 0 m 197 ft / 60 m
27R 148 ft / 45 m 12,676 ft / 3,864 m 253.60° 275.06° Asphalt 197 ft / 60 m 0 ft / 0 m

SBJV

Details ICAO SBJV (JOI)
Name LAURO CARNEIRO DE LOYOLA
Region Brazil
Timezone Unknown (UTC+0.0)
Stats Elevation 15 ft / 5 m (AMSL)
Location -26.224452° -48.797362°
Runways 1
Magnetic Variation 19.687° W

METAR

Not found

TAF

TAF SBJV 200900Z 2012/2024 25010KT CAVOK TX21/2017Z TN12/2023Z BECMG 2019/2021 23005KT RMK PDW

Decode

Destination Runways

ID Width Length Bearing (true) Bearing (mag) Surface Threshold Offset Overrun Length
15 148 ft / 45 m 5,382 ft / 1,640 m 128.89° 148.58° Asphalt 0 ft / 0 m 200 ft / 61 m
33 148 ft / 45 m 5,382 ft / 1,640 m 308.88° 328.57° Asphalt 0 ft / 0 m 200 ft / 61 m

Popular Alternatives